createdAt,value
2022-08-07T00:00:21.501Z,44.04
2022-08-07T00:02:35.502Z,44.13
2022-08-07T00:02:39.614Z,44.04
2022-08-07T00:03:21.468Z,43.94
2022-08-07T00:04:24.370Z,44.23
2022-08-07T00:05:23.652Z,43.94
2022-08-07T00:06:21.468Z,43.94
2022-08-07T00:07:21.472Z,44.13
2022-08-07T00:08:21.468Z,43.85
2022-08-07T00:09:22.326Z,43.94
2022-08-07T00:10:27.214Z,43.94
2022-08-07T00:11:21.453Z,44.04
2022-08-07T00:12:21.455Z,44.13
2022-08-07T00:13:23.850Z,44.42
2022-08-07T00:14:21.444Z,44.04
2022-08-07T00:15:21.453Z,44.04
2022-08-07T00:16:21.640Z,44.13
2022-08-07T00:17:21.450Z,44.13
2022-08-07T00:18:24.540Z,44.13
2022-08-07T00:19:26.115Z,44.13
2022-08-07T00:20:29.781Z,44.04
2022-08-07T00:21:57.225Z,44.13
2022-08-07T00:22:24.705Z,44.13
2022-08-07T00:23:21.692Z,44.23
2022-08-07T00:24:21.426Z,44.23
2022-08-07T00:25:21.428Z,44.13
2022-08-07T00:26:48.715Z,44.23
2022-08-07T00:27:22.607Z,44.32
2022-08-07T00:28:22.142Z,44.13
2022-08-07T00:29:23.269Z,44.32
2022-08-07T00:30:26.757Z,44.02
2022-08-07T00:31:21.415Z,44.11
2022-08-07T00:32:28.448Z,44.52
2022-08-07T00:33:21.409Z,44.79
2022-08-07T00:34:21.627Z,44.79
2022-08-07T00:35:21.402Z,44.81
2022-08-07T00:36:21.401Z,44.81
2022-08-07T00:37:21.404Z,44.69
2022-08-07T00:38:31.404Z,44.79
2022-08-07T00:39:21.422Z,44.69
2022-08-07T00:40:39.374Z,44.69
2022-08-07T00:41:21.382Z,44.69
2022-08-07T00:42:29.021Z,44.59
2022-08-07T00:44:00.887Z,44.49
2022-08-07T00:44:21.389Z,44.59
2022-08-07T00:45:21.377Z,44.59
2022-08-07T00:46:21.383Z,44.49
2022-08-07T00:48:09.518Z,44.49
2022-08-07T00:48:24.893Z,44.49
2022-08-07T00:49:24.836Z,44.49
2022-08-07T00:50:50.817Z,44.59
2022-08-07T00:51:21.365Z,44.49
2022-08-07T00:52:21.362Z,44.59
2022-08-07T00:53:21.355Z,44.89
2022-08-07T00:54:22.395Z,44.40
2022-08-07T00:55:46.601Z,44.69
2022-08-07T00:56:21.359Z,44.69
2022-08-07T00:57:21.354Z,44.79
2022-08-07T00:58:21.347Z,44.79
2022-08-07T00:59:35.068Z,44.79
2022-08-07T01:00:21.353Z,44.89
2022-08-07T01:01:21.442Z,44.89
2022-08-07T01:02:28.341Z,44.98
2022-08-07T01:03:21.332Z,44.89
2022-08-07T01:04:24.590Z,44.79
2022-08-07T01:05:24.641Z,44.79
2022-08-07T01:06:21.853Z,44.79
2022-08-07T01:07:21.339Z,44.79
2022-08-07T01:08:21.320Z,44.79
2022-08-07T01:10:04.708Z,44.98
2022-08-07T01:10:21.318Z,44.89
2022-08-07T01:12:09.677Z,44.98
2022-08-07T01:12:29.800Z,44.89
2022-08-07T01:13:21.323Z,44.79
2022-08-07T01:14:28.725Z,44.98
2022-08-07T01:15:21.353Z,44.79
2022-08-07T01:16:30.582Z,44.89
2022-08-07T01:17:21.301Z,44.69
2022-08-07T01:18:21.302Z,44.89
2022-08-07T01:19:21.295Z,45.07
2022-08-07T01:20:21.289Z,44.79
2022-08-07T01:21:24.385Z,44.69
2022-08-07T01:22:22.947Z,44.89
2022-08-07T01:23:21.285Z,44.89
2022-08-07T01:24:21.765Z,44.69
2022-08-07T01:25:54.668Z,44.89
2022-08-07T01:26:21.284Z,44.69
2022-08-07T01:27:21.284Z,44.98
2022-08-07T01:28:21.294Z,44.98
2022-08-07T01:29:22.115Z,45.07
2022-08-07T01:30:21.265Z,44.98
2022-08-07T01:31:21.269Z,44.98
2022-08-07T01:32:22.476Z,44.89
2022-08-07T01:33:21.261Z,44.98
2022-08-07T01:34:30.613Z,44.98
2022-08-07T01:35:21.255Z,45.17
2022-08-07T01:36:21.252Z,45.17
2022-08-07T01:37:21.249Z,45.17
2022-08-07T01:38:24.996Z,45.17
2022-08-07T01:39:21.304Z,44.89
2022-08-07T01:40:21.253Z,45.36
2022-08-07T01:41:25.939Z,45.17
2022-08-07T01:42:38.654Z,45.27
2022-08-07T01:43:21.231Z,45.27
2022-08-07T01:44:21.236Z,45.63
2022-08-07T01:45:22.763Z,45.56
2022-08-07T01:46:21.459Z,45.56
2022-08-07T01:48:29.855Z,45.17
2022-08-07T01:48:30.530Z,45.56
2022-08-07T01:49:22.135Z,45.07
2022-08-07T01:50:29.090Z,45.17
2022-08-07T01:52:02.129Z,45.17
2022-08-07T01:52:21.211Z,45.36
2022-08-07T01:53:21.788Z,45.36
2022-08-07T01:54:33.209Z,45.36
2022-08-07T01:55:22.226Z,45.07
2022-08-07T01:56:21.203Z,45.36
2022-08-07T01:57:24.940Z,45.17
2022-08-07T01:58:28.875Z,45.46
2022-08-07T01:59:21.201Z,45.27
2022-08-07T02:00:28.869Z,45.27
2022-08-07T02:01:59.179Z,45.94
2022-08-07T02:02:32.803Z,45.46
2022-08-07T02:03:26.272Z,45.36
2022-08-07T02:04:21.270Z,45.84
2022-08-07T02:05:43.426Z,45.65
2022-08-07T02:06:31.737Z,45.44
2022-08-07T02:07:21.277Z,45.36
2022-08-07T02:08:21.181Z,45.75
2022-08-07T02:09:51.854Z,45.65
2022-08-07T02:10:21.165Z,45.92
2022-08-07T02:11:30.750Z,45.75
2022-08-07T02:12:29.044Z,45.75
2022-08-07T02:13:21.161Z,45.75
2022-08-07T02:14:36.027Z,45.83
2022-08-07T02:15:21.155Z,45.75
2022-08-07T02:16:28.522Z,45.65
2022-08-07T02:17:27.398Z,45.75
2022-08-07T02:18:21.150Z,45.36
2022-08-07T02:20:04.043Z,45.56
2022-08-07T02:20:23.668Z,45.46
2022-08-07T02:21:21.144Z,45.53
2022-08-07T02:22:21.135Z,45.63
2022-08-07T02:23:24.047Z,45.63
2022-08-07T02:24:21.138Z,45.44
2022-08-07T02:25:21.127Z,46.01
2022-08-07T02:26:32.588Z,45.73
2022-08-07T02:27:21.166Z,46.01
2022-08-07T02:28:24.772Z,45.92
2022-08-07T02:29:21.964Z,45.53
2022-08-07T02:30:21.117Z,45.44
2022-08-07T02:31:28.745Z,45.63
2022-08-07T02:32:23.388Z,46.01
2022-08-07T02:33:21.115Z,46.11
2022-08-07T02:34:21.111Z,46.50
2022-08-07T02:36:29.618Z,46.40
2022-08-07T02:36:30.302Z,46.40
2022-08-07T02:37:21.109Z,46.31
2022-08-07T02:38:22.730Z,46.31
2022-08-07T02:39:43.755Z,46.11
2022-08-07T02:40:30.575Z,46.50
2022-08-07T02:41:21.749Z,46.21
2022-08-07T02:42:21.100Z,46.31
2022-08-07T02:43:21.093Z,46.31
2022-08-07T02:44:21.071Z,46.21
2022-08-07T02:46:00.351Z,46.50
2022-08-07T02:46:21.072Z,46.50
2022-08-07T02:47:23.648Z,46.50
2022-08-07T02:48:21.067Z,46.69
2022-08-07T02:49:29.257Z,46.59
2022-08-07T02:50:21.065Z,46.50
2022-08-07T02:51:41.921Z,46.59
2022-08-07T02:52:21.417Z,46.69
2022-08-07T02:53:21.056Z,46.69
2022-08-07T02:54:21.069Z,46.50
2022-08-07T02:55:27.726Z,47.27
2022-08-07T02:56:21.862Z,47.36
2022-08-07T02:57:21.143Z,47.05
2022-08-07T02:58:21.559Z,47.05
2022-08-07T02:59:24.089Z,46.98
2022-08-07T03:00:21.026Z,47.08
2022-08-07T03:01:35.791Z,47.15
2022-08-07T03:02:21.096Z,47.05
2022-08-07T03:03:22.621Z,47.05
2022-08-07T03:04:21.027Z,47.05
2022-08-07T03:05:23.119Z,47.08
2022-08-07T03:06:26.149Z,47.05
2022-08-07T03:07:25.708Z,47.17
2022-08-07T03:08:26.737Z,47.24
2022-08-07T03:09:43.585Z,47.17
2022-08-07T03:10:23.487Z,47.24
2022-08-07T03:11:21.003Z,47.15
2022-08-07T03:12:22.059Z,46.95
2022-08-07T03:13:21.002Z,47.05
2022-08-07T03:14:22.543Z,47.15
2022-08-07T03:15:30.127Z,47.34
2022-08-07T03:16:22.834Z,47.15
2022-08-07T03:17:22.206Z,47.15
2022-08-07T03:18:20.984Z,47.15
2022-08-07T03:19:20.978Z,47.34
2022-08-07T03:20:20.968Z,47.44
2022-08-07T03:21:20.972Z,47.15
2022-08-07T03:22:20.967Z,47.05
2022-08-07T03:23:20.962Z,47.24
2022-08-07T03:24:27.206Z,47.15
2022-08-07T03:25:21.366Z,47.15
2022-08-07T03:26:23.691Z,47.24
2022-08-07T03:27:30.531Z,47.53
2022-08-07T03:28:38.067Z,47.63
2022-08-07T03:29:20.950Z,47.44
2022-08-07T03:30:20.948Z,47.44
2022-08-07T03:31:26.125Z,47.63
2022-08-07T03:32:20.939Z,47.72
2022-08-07T03:33:20.934Z,47.53
2022-08-07T03:34:21.947Z,47.63
2022-08-07T03:35:26.198Z,47.53
2022-08-07T03:36:20.921Z,47.44
2022-08-07T03:37:20.929Z,47.63
2022-08-07T03:38:29.763Z,47.72
2022-08-07T03:39:58.852Z,47.63
2022-08-07T03:40:22.278Z,47.72
2022-08-07T03:41:20.910Z,48.21
2022-08-07T03:42:20.911Z,48.02
2022-08-07T03:43:20.897Z,48.11
2022-08-07T03:44:21.776Z,48.21
2022-08-07T03:45:31.092Z,48.21
2022-08-07T03:46:20.900Z,48.11
2022-08-07T03:47:20.895Z,47.92
2022-08-07T03:48:20.881Z,47.92
2022-08-07T03:49:20.877Z,48.02
2022-08-07T03:50:23.105Z,48.21
2022-08-07T03:51:20.930Z,48.40
2022-08-07T03:52:22.887Z,48.30
2022-08-07T03:53:20.872Z,48.30
2022-08-07T03:54:35.232Z,48.30
2022-08-07T03:55:20.879Z,48.11
2022-08-07T03:56:33.166Z,48.30
2022-08-07T03:58:34.960Z,48.59
2022-08-07T03:59:05.735Z,48.40
2022-08-07T03:59:21.084Z,48.38
2022-08-07T04:00:20.992Z,48.30
2022-08-07T04:01:20.845Z,48.49
2022-08-07T04:02:20.854Z,48.49
2022-08-07T04:03:20.857Z,48.08
2022-08-07T04:04:20.836Z,48.49
2022-08-07T04:05:24.011Z,48.40
2022-08-07T04:06:37.026Z,48.40
2022-08-07T04:07:22.903Z,48.40
2022-08-07T04:08:20.934Z,48.40
2022-08-07T04:09:23.065Z,48.40
2022-08-07T04:10:20.813Z,48.28
2022-08-07T04:12:20.776Z,48.59
2022-08-07T04:12:27.200Z,48.49
2022-08-07T04:13:20.811Z,48.57
2022-08-07T04:14:37.739Z,48.49
2022-08-07T04:15:20.800Z,48.21
2022-08-07T04:16:31.349Z,48.49
2022-08-07T04:17:21.863Z,48.97
2022-08-07T04:18:57.970Z,48.49
2022-08-07T04:19:20.780Z,48.76
2022-08-07T04:20:20.788Z,48.79
2022-08-07T04:21:20.780Z,48.79
2022-08-07T04:22:20.773Z,48.57
2022-08-07T04:23:20.767Z,48.79
2022-08-07T04:24:30.747Z,48.49
2022-08-07T04:25:20.779Z,48.59
2022-08-07T04:26:21.940Z,48.57
2022-08-07T04:27:25.704Z,48.47
2022-08-07T04:28:21.722Z,48.47
2022-08-07T04:29:20.750Z,49.05
2022-08-07T04:30:21.197Z,48.28
2022-08-07T04:31:38.713Z,48.57
2022-08-07T04:32:27.253Z,48.38
2022-08-07T04:33:20.750Z,48.47
2022-08-07T04:34:24.266Z,48.66
2022-08-07T04:35:21.418Z,48.76
2022-08-07T04:36:22.901Z,48.76
2022-08-07T04:37:20.787Z,48.66
2022-08-07T04:38:20.729Z,48.95
2022-08-07T04:39:25.861Z,48.66
2022-08-07T04:40:20.726Z,48.85
2022-08-07T04:41:20.723Z,48.76
2022-08-07T04:42:20.710Z,48.76
2022-08-07T04:43:20.717Z,48.76
2022-08-07T04:44:20.707Z,48.66
2022-08-07T04:45:44.487Z,48.66
2022-08-07T04:46:29.632Z,48.66
2022-08-07T04:47:56.737Z,48.57
2022-08-07T04:48:20.708Z,48.95
2022-08-07T04:49:24.814Z,49.05
2022-08-07T04:50:22.298Z,48.76
2022-08-07T04:51:20.678Z,48.76
2022-08-07T04:52:20.679Z,48.66
2022-08-07T04:53:39.966Z,48.76
2022-08-07T04:54:22.595Z,48.66
2022-08-07T04:58:10.641Z,48.76
2022-08-07T04:58:11.334Z,48.76
2022-08-07T04:58:16.495Z,48.76
2022-08-07T04:58:47.296Z,48.76
2022-08-07T05:00:08.029Z,48.76
2022-08-07T05:00:30.113Z,48.76
2022-08-07T05:01:20.725Z,48.76
2022-08-07T05:02:20.820Z,48.57
2022-08-07T05:04:00.168Z,48.76
2022-08-07T05:04:20.627Z,48.76
2022-08-07T05:05:52.186Z,48.76
2022-08-07T05:06:20.631Z,48.76
2022-08-07T05:07:21.139Z,48.57
2022-08-07T05:08:59.167Z,48.76
2022-08-07T05:09:43.060Z,48.66
2022-08-07T05:10:20.619Z,48.66
2022-08-07T05:11:26.155Z,48.66
2022-08-07T05:12:27.125Z,48.76
2022-08-07T05:14:53.043Z,48.57
2022-08-07T05:14:55.368Z,48.38
2022-08-07T05:15:23.074Z,48.38
2022-08-07T05:16:20.598Z,48.66
2022-08-07T05:17:52.869Z,48.59
2022-08-07T05:18:20.632Z,48.59
2022-08-07T05:19:20.592Z,48.85
2022-08-07T05:20:20.587Z,48.69
2022-08-07T05:22:00.519Z,48.79
2022-08-07T05:22:26.753Z,48.69
2022-08-07T05:23:20.589Z,48.40
2022-08-07T05:24:20.582Z,48.21
2022-08-07T05:25:25.957Z,48.30
2022-08-07T05:26:23.991Z,48.40
2022-08-07T05:28:03.182Z,48.49
2022-08-07T05:28:23.421Z,48.11
2022-08-07T05:29:20.562Z,48.40
2022-08-07T05:30:30.018Z,48.30
2022-08-07T05:31:20.563Z,48.21
2022-08-07T05:32:20.566Z,47.94
2022-08-07T05:33:20.854Z,48.13
2022-08-07T05:34:20.559Z,48.23
2022-08-07T05:35:23.804Z,47.65
2022-08-07T05:36:22.626Z,47.46
2022-08-07T05:37:25.337Z,47.46
2022-08-07T05:38:58.365Z,47.46
2022-08-07T05:40:16.646Z,47.65
2022-08-07T05:40:20.748Z,47.17
2022-08-07T05:41:21.889Z,47.36
2022-08-07T05:42:34.333Z,47.17
2022-08-07T05:43:49.890Z,47.49
2022-08-07T05:44:29.246Z,46.91
2022-08-07T05:45:46.988Z,47.10
2022-08-07T05:46:20.535Z,47.19
2022-08-07T05:47:20.915Z,47.29
2022-08-07T05:48:20.538Z,46.91
2022-08-07T05:49:20.523Z,47.00
2022-08-07T05:50:20.531Z,47.19
2022-08-07T05:51:20.519Z,47.00
2022-08-07T05:52:20.704Z,47.29
2022-08-07T05:54:13.597Z,46.52
2022-08-07T05:54:31.355Z,46.64
2022-08-07T05:55:20.521Z,46.64
2022-08-07T05:56:20.514Z,46.73
2022-08-07T05:57:20.567Z,46.55
2022-08-07T05:58:30.251Z,46.55
2022-08-07T05:59:20.832Z,46.25
2022-08-07T06:00:20.514Z,46.25
2022-08-07T06:01:20.554Z,46.73
2022-08-07T06:02:28.537Z,46.15
2022-08-07T06:03:20.531Z,46.45
2022-08-07T06:04:20.521Z,46.47
2022-08-07T06:05:28.086Z,46.28
2022-08-07T06:06:20.521Z,46.08
2022-08-07T06:07:23.156Z,45.89
2022-08-07T06:08:29.897Z,45.70
2022-08-07T06:09:20.514Z,46.08
2022-08-07T06:10:20.522Z,46.08
2022-08-07T06:11:20.536Z,45.41
2022-08-07T06:12:20.953Z,45.51
2022-08-07T06:13:20.864Z,45.41
2022-08-07T06:14:21.033Z,45.62
2022-08-07T06:15:20.531Z,46.01
2022-08-07T06:16:20.528Z,45.53
2022-08-07T06:17:22.284Z,45.14
2022-08-07T06:18:20.535Z,45.24
2022-08-07T06:19:47.442Z,45.24
2022-08-07T06:20:31.848Z,45.53
2022-08-07T06:22:14.978Z,45.43
2022-08-07T06:22:23.938Z,45.34
2022-08-07T06:23:24.825Z,45.43
2022-08-07T06:24:38.695Z,45.72
2022-08-07T06:25:20.526Z,45.24
2022-08-07T06:26:20.525Z,45.24
2022-08-07T06:27:22.796Z,45.34
2022-08-07T06:28:27.651Z,45.82
2022-08-07T06:29:20.528Z,45.82
2022-08-07T06:30:32.226Z,45.53
2022-08-07T06:31:20.528Z,45.72
2022-08-07T06:32:20.533Z,46.01
2022-08-07T06:33:20.526Z,46.18
2022-08-07T06:34:21.551Z,45.70
2022-08-07T06:35:20.528Z,46.08
2022-08-07T06:36:34.786Z,46.18
2022-08-07T06:37:20.754Z,46.47
2022-08-07T06:38:20.909Z,46.47
2022-08-07T06:40:17.915Z,46.47
2022-08-07T06:40:21.594Z,46.56
2022-08-07T06:41:29.384Z,46.37
2022-08-07T06:42:26.586Z,46.66
2022-08-07T06:43:21.334Z,46.47
2022-08-07T06:44:20.533Z,46.76
2022-08-07T06:45:21.205Z,46.76
2022-08-07T06:46:34.997Z,46.76
2022-08-07T06:47:26.979Z,47.05
2022-08-07T06:48:25.313Z,47.24
2022-08-07T06:49:20.528Z,47.03
2022-08-07T06:50:20.527Z,47.12
2022-08-07T06:51:24.507Z,47.22
2022-08-07T06:52:32.079Z,47.31
2022-08-07T06:55:29.875Z,47.22
2022-08-07T06:55:32.195Z,47.31
2022-08-07T06:55:33.713Z,47.22
2022-08-07T06:56:20.510Z,47.12
2022-08-07T06:57:20.576Z,47.03
2022-08-07T06:58:21.454Z,47.41
2022-08-07T07:00:14.030Z,47.31
2022-08-07T07:00:20.503Z,47.03
2022-08-07T07:01:20.630Z,47.22
2022-08-07T07:02:48.488Z,47.31
2022-08-07T07:03:39.627Z,47.41
2022-08-07T07:04:28.106Z,47.31
2022-08-07T07:06:02.788Z,47.31
2022-08-07T07:06:24.000Z,47.31
2022-08-07T07:07:59.840Z,47.41
2022-08-07T07:08:26.465Z,47.41
2022-08-07T07:09:20.517Z,47.22
2022-08-07T07:10:21.333Z,47.12
2022-08-07T07:12:07.700Z,47.12
2022-08-07T07:12:30.700Z,47.22
2022-08-07T07:13:56.245Z,47.12
2022-08-07T07:14:21.708Z,47.31
2022-08-07T07:15:23.980Z,47.03
2022-08-07T07:16:20.487Z,47.03
2022-08-07T07:17:20.478Z,47.24
2022-08-07T07:18:37.669Z,47.24
2022-08-07T07:19:58.049Z,47.14
2022-08-07T07:20:20.485Z,47.34
2022-08-07T07:21:20.483Z,46.56
2022-08-07T07:22:35.871Z,46.66
2022-08-07T07:24:10.106Z,46.66
2022-08-07T07:24:20.485Z,46.76
2022-08-07T07:26:32.717Z,46.56
2022-08-07T07:26:33.920Z,46.56
2022-08-07T07:27:20.522Z,46.28
2022-08-07T07:28:42.670Z,46.37
2022-08-07T07:29:55.868Z,46.56
2022-08-07T07:30:32.569Z,46.49
2022-08-07T07:31:21.606Z,46.40
2022-08-07T07:32:20.477Z,46.30
2022-08-07T07:33:20.467Z,46.11
2022-08-07T07:34:20.470Z,46.11
2022-08-07T07:35:20.464Z,46.59
2022-08-07T07:36:20.474Z,46.30
2022-08-07T07:37:44.003Z,46.20
2022-08-07T07:38:20.461Z,45.92
2022-08-07T07:39:20.567Z,46.11
2022-08-07T07:40:20.470Z,46.01
2022-08-07T07:41:20.476Z,45.84
2022-08-07T07:42:20.793Z,45.55
2022-08-07T07:43:27.730Z,45.75
2022-08-07T07:44:25.745Z,46.03
2022-08-07T07:45:24.508Z,45.94
2022-08-07T07:46:37.148Z,46.03
2022-08-07T07:47:23.950Z,46.03
2022-08-07T07:48:34.732Z,45.94
2022-08-07T07:50:33.398Z,46.03
2022-08-07T07:50:36.255Z,46.13
2022-08-07T07:51:20.466Z,46.13
2022-08-07T07:52:20.464Z,45.94
2022-08-07T07:53:25.606Z,45.75
2022-08-07T07:54:20.476Z,46.15
2022-08-07T07:55:20.459Z,45.76
2022-08-07T07:56:30.669Z,45.96
2022-08-07T07:57:20.502Z,45.57
2022-08-07T07:58:20.469Z,45.48
2022-08-07T07:59:51.476Z,45.48
2022-08-07T08:00:28.865Z,45.57
2022-08-07T08:02:03.892Z,45.38
2022-08-07T08:02:34.124Z,45.48
2022-08-07T08:04:06.281Z,45.48
2022-08-07T08:04:25.374Z,45.38
2022-08-07T08:05:20.461Z,45.57
2022-08-07T08:06:20.475Z,45.67
2022-08-07T08:07:20.470Z,45.40
2022-08-07T08:08:32.289Z,45.86
2022-08-07T08:09:20.495Z,45.79
2022-08-07T08:10:37.999Z,45.69
2022-08-07T08:11:59.921Z,45.69
2022-08-07T08:12:50.337Z,45.69
2022-08-07T08:13:20.478Z,45.50
2022-08-07T08:14:24.554Z,45.50
2022-08-07T08:15:23.178Z,45.69
2022-08-07T08:16:20.476Z,45.69
2022-08-07T08:17:57.587Z,45.89
2022-08-07T08:18:20.725Z,45.89
2022-08-07T08:20:17.734Z,45.98
2022-08-07T08:20:23.097Z,45.59
2022-08-07T08:21:20.484Z,45.31
2022-08-07T08:22:20.494Z,45.50
2022-08-07T08:23:20.681Z,45.59
2022-08-07T08:24:44.942Z,45.40
2022-08-07T08:25:27.078Z,45.50
2022-08-07T08:26:20.477Z,45.31
2022-08-07T08:27:20.672Z,45.11
2022-08-07T08:28:24.115Z,44.73
2022-08-07T08:29:20.476Z,45.01
2022-08-07T08:30:20.533Z,45.11
2022-08-07T08:31:30.169Z,44.92
2022-08-07T08:32:25.403Z,44.94
2022-08-07T08:33:20.558Z,44.84
2022-08-07T08:34:27.133Z,44.92
2022-08-07T08:35:20.486Z,44.65
2022-08-07T08:36:25.670Z,44.46
2022-08-07T08:37:59.271Z,44.34
2022-08-07T08:38:20.506Z,44.75
2022-08-07T08:39:20.600Z,44.63
2022-08-07T08:40:23.563Z,44.63
2022-08-07T08:41:20.495Z,44.73
2022-08-07T08:42:20.631Z,44.75
2022-08-07T08:43:20.518Z,44.65
2022-08-07T08:44:21.282Z,44.53
2022-08-07T08:45:20.516Z,44.73
2022-08-07T08:46:22.005Z,44.82
2022-08-07T08:47:20.576Z,44.73
2022-08-07T08:48:20.665Z,44.73
2022-08-07T08:49:33.525Z,44.63
2022-08-07T08:50:28.173Z,44.73
2022-08-07T08:51:29.546Z,44.82
2022-08-07T08:52:20.493Z,44.73
2022-08-07T08:53:20.504Z,44.92
2022-08-07T08:54:20.516Z,44.63
2022-08-07T08:55:21.289Z,44.63
2022-08-07T08:56:24.414Z,44.73
2022-08-07T08:57:20.557Z,44.73
2022-08-07T08:58:28.304Z,44.63
2022-08-07T08:59:20.506Z,44.73
2022-08-07T09:00:20.498Z,44.73
2022-08-07T09:01:20.586Z,44.73
2022-08-07T09:02:36.418Z,44.82
2022-08-07T09:03:20.498Z,44.73
2022-08-07T09:04:26.079Z,44.73
2022-08-07T09:05:24.965Z,44.73
2022-08-07T09:06:20.507Z,44.53
2022-08-07T09:07:23.128Z,44.63
2022-08-07T09:08:28.135Z,44.63
2022-08-07T09:09:23.679Z,44.63
2022-08-07T09:10:20.550Z,44.43
2022-08-07T09:11:24.232Z,44.32
2022-08-07T09:12:31.914Z,44.43
2022-08-07T09:13:20.497Z,44.60
2022-08-07T09:14:20.504Z,45.00
2022-08-07T09:16:22.935Z,44.90
2022-08-07T09:16:26.612Z,45.00
2022-08-07T09:17:20.546Z,45.00
2022-08-07T09:18:22.817Z,45.09
2022-08-07T09:19:51.017Z,45.00
2022-08-07T09:20:34.956Z,45.00
2022-08-07T09:21:57.894Z,44.60
2022-08-07T09:24:28.321Z,45.18
2022-08-07T09:24:33.424Z,45.28
2022-08-07T09:24:53.917Z,45.28
2022-08-07T09:25:20.508Z,45.28
2022-08-07T09:26:20.930Z,45.18
2022-08-07T09:27:20.493Z,45.28
2022-08-07T09:30:04.271Z,45.26
2022-08-07T09:30:04.373Z,45.28
2022-08-07T09:30:25.409Z,45.07
2022-08-07T09:31:20.510Z,45.38
2022-08-07T09:32:20.998Z,45.18
2022-08-07T09:33:41.271Z,45.00
2022-08-07T09:34:20.887Z,45.07
2022-08-07T09:36:05.148Z,45.17
2022-08-07T09:36:20.492Z,45.07
2022-08-07T09:37:20.538Z,44.78
2022-08-07T09:38:21.092Z,44.97
2022-08-07T09:39:54.354Z,44.78
2022-08-07T09:40:20.522Z,44.87
2022-08-07T09:41:20.479Z,45.07
2022-08-07T09:42:23.154Z,44.68
2022-08-07T09:43:20.488Z,44.97
2022-08-07T09:44:32.700Z,44.78
2022-08-07T09:47:26.104Z,44.97
2022-08-07T09:47:51.488Z,44.97
2022-08-07T09:47:52.063Z,44.78
2022-08-07T09:48:20.840Z,44.87
2022-08-07T09:50:01.876Z,44.87
2022-08-07T09:50:20.477Z,44.78
2022-08-07T09:52:15.822Z,44.78
2022-08-07T09:52:34.838Z,44.49
2022-08-07T09:53:20.465Z,44.59
2022-08-07T09:54:20.473Z,44.59
2022-08-07T09:55:36.840Z,44.68
2022-08-07T09:56:37.748Z,44.68
2022-08-07T09:57:20.473Z,44.68
2022-08-07T09:58:20.458Z,44.68
2022-08-07T09:59:21.667Z,44.59
2022-08-07T10:00:20.477Z,44.68
2022-08-07T10:01:51.439Z,44.68
2022-08-07T10:02:20.465Z,44.87
2022-08-07T10:04:06.407Z,44.68
2022-08-07T10:04:28.195Z,44.87
2022-08-07T10:05:58.923Z,44.68
2022-08-07T10:06:24.606Z,44.20
2022-08-07T10:07:25.953Z,44.39
2022-08-07T10:08:20.455Z,44.39
2022-08-07T10:09:34.144Z,44.20
2022-08-07T10:10:21.442Z,44.20
2022-08-07T10:12:01.485Z,44.20
2022-08-07T10:12:21.710Z,44.01
2022-08-07T10:13:54.697Z,44.01
2022-08-07T10:14:22.979Z,44.01
2022-08-07T10:15:20.447Z,44.10
2022-08-07T10:16:20.440Z,44.20
2022-08-07T10:17:20.438Z,44.29
2022-08-07T10:18:20.435Z,44.10
2022-08-07T10:19:20.442Z,43.91
2022-08-07T10:20:20.579Z,43.72
2022-08-07T10:22:14.698Z,43.93
2022-08-07T10:22:33.398Z,43.91
2022-08-07T10:24:05.380Z,44.03
2022-08-07T10:24:21.469Z,44.01
2022-08-07T10:25:20.789Z,44.10
2022-08-07T10:26:24.659Z,44.12
2022-08-07T10:27:20.471Z,43.54
2022-08-07T10:28:20.426Z,43.81
2022-08-07T10:29:20.441Z,43.54
2022-08-07T10:30:20.435Z,43.64
2022-08-07T10:31:20.431Z,43.84
2022-08-07T10:32:50.978Z,43.74
2022-08-07T10:33:20.433Z,43.62
2022-08-07T10:34:31.979Z,43.54
2022-08-07T10:35:25.472Z,43.74
2022-08-07T10:36:29.585Z,43.74
2022-08-07T10:37:26.398Z,43.64
2022-08-07T10:38:35.252Z,43.64
2022-08-07T10:39:20.474Z,43.74
2022-08-07T10:40:20.941Z,43.74
2022-08-07T10:41:51.501Z,43.64
2022-08-07T10:42:21.249Z,43.74
2022-08-07T10:43:29.801Z,43.43
2022-08-07T10:44:28.883Z,43.54
2022-08-07T10:45:57.247Z,43.54
2022-08-07T10:46:20.421Z,43.45
2022-08-07T10:47:26.562Z,42.97
2022-08-07T10:48:20.420Z,43.35
2022-08-07T10:49:24.733Z,43.35
2022-08-07T10:50:20.436Z,42.97
2022-08-07T10:51:39.102Z,43.06
2022-08-07T10:52:20.470Z,43.16
2022-08-07T10:53:21.549Z,43.06
2022-08-07T10:54:20.419Z,43.16
2022-08-07T10:55:26.748Z,42.97
2022-08-07T10:56:21.012Z,42.77
2022-08-07T10:57:22.143Z,43.16
2022-08-07T10:58:24.960Z,43.16
2022-08-07T10:59:21.407Z,43.26
2022-08-07T11:00:39.033Z,42.77
2022-08-07T11:01:22.268Z,42.87
2022-08-07T11:02:33.130Z,42.87
2022-08-07T11:03:20.408Z,42.77
2022-08-07T11:04:32.312Z,42.77
2022-08-07T11:05:20.416Z,42.77
2022-08-07T11:06:21.899Z,42.77
2022-08-07T11:07:56.384Z,42.68
2022-08-07T11:08:20.395Z,42.87
2022-08-07T11:10:08.671Z,42.68
2022-08-07T11:10:20.407Z,42.58
2022-08-07T11:11:21.032Z,42.48
2022-08-07T11:12:32.364Z,42.68
2022-08-07T11:14:42.694Z,42.68
2022-08-07T11:14:45.195Z,42.68
2022-08-07T11:15:20.401Z,42.29
2022-08-07T11:16:20.401Z,42.39
2022-08-07T11:17:23.104Z,42.29
2022-08-07T11:18:20.400Z,42.39
2022-08-07T11:19:21.364Z,42.58
2022-08-07T11:20:20.393Z,42.48
2022-08-07T11:21:20.390Z,42.48
2022-08-07T11:22:33.297Z,42.29
2022-08-07T11:23:20.502Z,42.58
2022-08-07T11:24:20.403Z,42.58
2022-08-07T11:25:20.402Z,42.68
2022-08-07T11:26:20.391Z,42.39
2022-08-07T11:27:20.713Z,42.48
2022-08-07T11:28:20.391Z,42.29
2022-08-07T11:29:42.168Z,42.29
2022-08-07T11:30:39.069Z,42.39
2022-08-07T11:31:20.384Z,42.29
2022-08-07T11:32:25.675Z,42.39
2022-08-07T11:33:53.809Z,42.10
2022-08-07T11:34:20.384Z,42.29
2022-08-07T11:35:26.813Z,42.39
2022-08-07T11:36:30.481Z,41.91
2022-08-07T11:37:24.382Z,42.29
2022-08-07T11:38:21.349Z,42.10
2022-08-07T11:39:20.638Z,42.00
2022-08-07T11:40:20.448Z,42.00
2022-08-07T11:41:29.695Z,42.00
2022-08-07T11:42:20.384Z,42.19
2022-08-07T11:43:29.582Z,42.10
2022-08-07T11:44:20.377Z,42.00
2022-08-07T11:45:23.781Z,41.81
2022-08-07T11:46:20.377Z,42.29
2022-08-07T11:47:20.413Z,41.93
2022-08-07T11:48:29.521Z,41.91
2022-08-07T11:49:50.777Z,42.10
2022-08-07T11:50:31.691Z,41.71
2022-08-07T11:51:41.373Z,41.71
2022-08-07T11:52:20.364Z,41.71
2022-08-07T11:53:21.687Z,42.00
2022-08-07T11:54:25.400Z,41.91
2022-08-07T11:56:24.861Z,41.81
2022-08-07T11:56:26.885Z,41.71
2022-08-07T11:57:20.368Z,42.00
2022-08-07T11:58:20.368Z,42.00
2022-08-07T12:00:08.279Z,41.81
2022-08-07T12:00:20.368Z,41.71
2022-08-07T12:01:22.024Z,41.91
2022-08-07T12:02:20.844Z,41.61
2022-08-07T12:03:45.299Z,41.71
2022-08-07T12:04:20.374Z,41.71
2022-08-07T12:05:41.002Z,41.81
2022-08-07T12:06:36.878Z,41.81
2022-08-07T12:07:27.301Z,41.71
2022-08-07T12:08:26.109Z,41.91
2022-08-07T12:09:23.569Z,41.91
2022-08-07T12:10:20.368Z,41.93
2022-08-07T12:11:22.471Z,41.93
2022-08-07T12:12:20.364Z,41.91
2022-08-07T12:13:37.077Z,41.81
2022-08-07T12:14:20.369Z,42.00
2022-08-07T12:15:46.749Z,42.00
2022-08-07T12:16:29.937Z,41.63
2022-08-07T12:17:21.982Z,41.63
2022-08-07T12:18:22.211Z,41.44
2022-08-07T12:19:21.622Z,41.35
2022-08-07T12:20:30.448Z,41.23
2022-08-07T12:21:55.038Z,41.35
2022-08-07T12:22:38.159Z,41.23
2022-08-07T12:23:37.411Z,41.25
2022-08-07T12:24:37.976Z,41.35
2022-08-07T12:26:21.931Z,41.15
2022-08-07T12:26:22.811Z,41.15
2022-08-07T12:27:27.971Z,41.03
2022-08-07T12:28:24.123Z,41.25
2022-08-07T12:29:38.287Z,40.96
2022-08-07T12:30:20.351Z,41.05
2022-08-07T12:31:22.395Z,41.05
2022-08-07T12:32:20.347Z,40.86
2022-08-07T12:33:23.439Z,40.86
2022-08-07T12:34:20.349Z,40.96
2022-08-07T12:35:20.342Z,40.96
2022-08-07T12:36:20.350Z,41.15
2022-08-07T12:37:23.335Z,41.05
2022-08-07T12:38:39.151Z,40.96
2022-08-07T12:39:42.897Z,41.05
2022-08-07T12:40:44.830Z,41.05
2022-08-07T12:41:20.435Z,41.05
2022-08-07T12:42:22.828Z,41.05
2022-08-07T12:44:01.505Z,41.05
2022-08-07T12:44:20.340Z,40.96
2022-08-07T12:45:20.357Z,40.96
2022-08-07T12:46:26.346Z,40.86
2022-08-07T12:47:21.864Z,40.77
2022-08-07T12:48:27.992Z,40.77
2022-08-07T12:49:25.550Z,40.67
2022-08-07T12:50:38.486Z,40.86
2022-08-07T12:51:20.335Z,40.86
2022-08-07T12:52:20.340Z,40.86